createdAt,value
2023-01-15T00:01:23.279Z,10.10
2023-01-15T00:03:26.097Z,10.09
2023-01-15T00:05:28.892Z,10.10
2023-01-15T00:07:32.250Z,10.12
2023-01-15T00:09:35.227Z,10.09
2023-01-15T00:11:38.025Z,10.12
2023-01-15T00:13:42.279Z,10.13
2023-01-15T00:15:45.156Z,10.18
2023-01-15T00:17:48.063Z,10.13
2023-01-15T00:19:50.951Z,10.09
2023-01-15T00:21:53.930Z,10.12
2023-01-15T00:24:14.575Z,10.24
2023-01-15T00:26:35.996Z,10.34
2023-01-15T00:28:38.768Z,10.21
2023-01-15T00:30:43.440Z,10.12
2023-01-15T00:32:46.372Z,10.17
2023-01-15T00:34:49.191Z,10.24
2023-01-15T00:36:51.976Z,10.29
2023-01-15T00:38:54.814Z,10.34
2023-01-15T00:40:57.607Z,10.29
2023-01-15T00:43:00.408Z,10.30
2023-01-15T00:45:09.834Z,10.18
2023-01-15T00:47:15.201Z,10.15
2023-01-15T00:49:17.859Z,10.22
2023-01-15T00:51:20.691Z,10.15
2023-01-15T00:53:23.570Z,10.24
2023-01-15T00:55:26.758Z,10.23
2023-01-15T00:57:29.652Z,10.22
2023-01-15T00:59:32.458Z,10.19
2023-01-15T01:01:35.511Z,10.19
2023-01-15T01:03:39.653Z,10.20
2023-01-15T01:05:42.458Z,10.31
2023-01-15T01:07:45.207Z,10.21
2023-01-15T01:09:48.115Z,10.23
2023-01-15T01:11:51.413Z,10.31
2023-01-15T01:13:54.916Z,10.26
2023-01-15T01:15:57.872Z,10.18
2023-01-15T01:18:02.873Z,10.21
2023-01-15T01:20:08.161Z,10.34
2023-01-15T01:22:10.982Z,10.25
2023-01-15T01:24:15.888Z,10.21
2023-01-15T01:26:19.602Z,10.20
2023-01-15T01:28:22.397Z,10.21
2023-01-15T01:30:25.182Z,10.29
2023-01-15T01:32:28.405Z,10.33
2023-01-15T01:34:33.562Z,10.24
2023-01-15T01:36:39.205Z,10.20
2023-01-15T01:38:41.919Z,10.24
2023-01-15T01:40:44.750Z,10.23
2023-01-15T01:42:48.155Z,10.27
2023-01-15T01:45:02.448Z,10.41
2023-01-15T01:47:08.063Z,10.38
2023-01-15T01:49:14.047Z,10.35
2023-01-15T01:51:17.745Z,10.37
2023-01-15T01:53:26.638Z,10.34
2023-01-15T01:55:31.776Z,10.34
2023-01-15T01:57:34.951Z,10.40
2023-01-15T01:59:39.155Z,10.39
2023-01-15T02:01:42.161Z,10.29
2023-01-15T02:03:46.256Z,10.22
2023-01-15T02:05:53.891Z,10.14
2023-01-15T02:07:56.996Z,10.24
2023-01-15T02:10:01.360Z,10.26
2023-01-15T02:12:18.525Z,10.30
2023-01-15T02:14:27.408Z,10.33
2023-01-15T02:16:37.660Z,10.29
2023-01-15T02:18:47.989Z,10.19
2023-01-15T02:20:56.450Z,10.20
2023-01-15T02:23:12.196Z,10.24
2023-01-15T02:25:25.714Z,10.29
2023-01-15T02:27:30.175Z,10.18
2023-01-15T02:29:41.075Z,10.20
2023-01-15T02:31:49.151Z,10.20
2023-01-15T02:33:58.075Z,10.12
2023-01-15T02:36:01.895Z,10.08
2023-01-15T02:38:12.107Z,10.14
2023-01-15T02:40:16.212Z,10.13
2023-01-15T02:42:21.581Z,10.21
2023-01-15T02:44:27.935Z,10.17
2023-01-15T02:46:36.890Z,10.10
2023-01-15T02:48:47.165Z,10.10
2023-01-15T02:50:53.484Z,10.06
2023-01-15T02:53:03.857Z,10.10
2023-01-15T02:55:13.970Z,9.96
2023-01-15T02:57:23.634Z,9.96
2023-01-15T02:59:37.582Z,9.92
2023-01-15T03:01:45.583Z,9.93
2023-01-15T03:03:56.566Z,10.33
2023-01-15T03:06:05.448Z,10.26
2023-01-15T03:08:09.444Z,10.09
2023-01-15T03:10:15.000Z,9.90
2023-01-15T03:12:23.345Z,9.70
2023-01-15T03:14:33.458Z,9.67
2023-01-15T03:16:39.095Z,9.80
2023-01-15T03:18:49.537Z,9.66
2023-01-15T03:20:58.926Z,9.58
2023-01-15T03:23:09.038Z,9.56
2023-01-15T03:25:20.303Z,9.38
2023-01-15T03:27:27.018Z,9.36
2023-01-15T03:29:35.562Z,9.35
2023-01-15T03:31:41.515Z,9.34
2023-01-15T03:33:44.303Z,9.36
2023-01-15T03:35:55.927Z,9.31
2023-01-15T03:38:07.791Z,9.19
2023-01-15T03:40:12.335Z,9.33
2023-01-15T03:42:26.182Z,9.23
2023-01-15T03:44:38.317Z,9.23
2023-01-15T03:46:55.059Z,9.09
2023-01-15T03:49:02.802Z,9.14
2023-01-15T03:51:13.126Z,9.11
2023-01-15T03:53:21.978Z,9.22
2023-01-15T03:55:38.109Z,9.09
2023-01-15T03:57:49.132Z,9.17
2023-01-15T03:59:55.958Z,9.21
2023-01-15T04:02:02.715Z,9.09
2023-01-15T04:04:06.803Z,9.07
2023-01-15T04:06:11.471Z,9.15
2023-01-15T04:08:17.873Z,9.23
2023-01-15T04:10:23.061Z,9.26
2023-01-15T04:12:27.984Z,9.31
2023-01-15T04:14:32.423Z,9.20
2023-01-15T04:16:41.688Z,9.23
2023-01-15T04:18:45.821Z,9.20
2023-01-15T04:20:49.325Z,9.12
2023-01-15T04:22:52.177Z,9.13
2023-01-15T04:24:55.598Z,9.12
2023-01-15T04:26:58.454Z,9.11
2023-01-15T04:29:01.227Z,9.16
2023-01-15T04:31:04.146Z,9.07
2023-01-15T04:33:06.910Z,9.07
2023-01-15T04:35:11.200Z,9.09
2023-01-15T04:37:14.025Z,9.22
2023-01-15T04:39:16.797Z,9.33
2023-01-15T04:41:36.830Z,9.24
2023-01-15T04:43:57.020Z,9.19
2023-01-15T04:46:00.387Z,9.09
2023-01-15T04:48:05.279Z,9.09
2023-01-15T04:50:08.335Z,9.17
2023-01-15T04:52:12.491Z,9.04
2023-01-15T04:54:16.662Z,8.98
2023-01-15T04:56:19.448Z,8.87
2023-01-15T04:58:22.571Z,8.89
2023-01-15T05:00:25.591Z,8.97
2023-01-15T05:02:28.552Z,9.09
2023-01-15T05:04:31.915Z,9.08
2023-01-15T05:06:35.075Z,9.02
2023-01-15T05:08:39.248Z,9.03
2023-01-15T05:10:42.064Z,8.84
2023-01-15T05:12:44.873Z,8.70
2023-01-15T05:14:47.694Z,8.55
2023-01-15T05:16:50.507Z,8.55
2023-01-15T05:18:55.153Z,8.49
2023-01-15T05:20:57.895Z,8.43
2023-01-15T05:23:00.651Z,8.37
2023-01-15T05:25:05.385Z,8.27
2023-01-15T05:27:08.220Z,8.25
2023-01-15T05:29:12.205Z,8.14
2023-01-15T05:31:16.810Z,8.13
2023-01-15T05:33:19.649Z,8.17
2023-01-15T05:35:22.504Z,8.18
2023-01-15T05:37:25.286Z,8.17
2023-01-15T05:39:28.122Z,8.22
2023-01-15T05:41:50.883Z,8.21
2023-01-15T05:43:54.644Z,8.08
2023-01-15T05:46:02.196Z,8.08
2023-01-15T05:48:05.437Z,8.03
2023-01-15T05:50:09.083Z,8.00
2023-01-15T05:52:11.878Z,8.06
2023-01-15T05:54:16.227Z,8.09
2023-01-15T05:56:18.966Z,8.07
2023-01-15T05:58:23.110Z,8.08
2023-01-15T06:00:28.225Z,8.02
2023-01-15T06:02:31.982Z,7.92
2023-01-15T06:04:34.808Z,7.93
2023-01-15T06:06:37.661Z,7.98
2023-01-15T06:08:40.499Z,8.03
2023-01-15T06:10:45.611Z,8.01
2023-01-15T06:12:48.258Z,8.04
2023-01-15T06:14:52.422Z,8.02
2023-01-15T06:16:55.245Z,7.96
2023-01-15T06:19:01.620Z,7.99
2023-01-15T06:21:05.278Z,7.88
2023-01-15T06:23:08.183Z,7.80
2023-01-15T06:25:11.064Z,7.82
2023-01-15T06:27:13.818Z,7.83
2023-01-15T06:29:18.821Z,7.68
2023-01-15T06:31:24.580Z,7.56
2023-01-15T06:33:27.453Z,7.47
2023-01-15T06:35:30.298Z,7.45
2023-01-15T06:37:33.114Z,7.55
2023-01-15T06:39:35.996Z,7.60
2023-01-15T06:41:56.582Z,7.53
2023-01-15T06:44:16.898Z,7.53
2023-01-15T06:46:37.151Z,7.49
2023-01-15T06:48:41.589Z,7.49
2023-01-15T06:50:44.786Z,7.45
2023-01-15T06:52:47.615Z,7.41
2023-01-15T06:54:50.478Z,7.47
2023-01-15T06:56:53.377Z,7.50
2023-01-15T06:58:56.869Z,7.53
2023-01-15T07:00:59.858Z,7.44
2023-01-15T07:03:03.020Z,7.43
2023-01-15T07:05:07.734Z,7.37
2023-01-15T07:07:10.540Z,7.32
2023-01-15T07:09:13.567Z,7.37
2023-01-15T07:11:17.687Z,7.33
2023-01-15T07:13:20.569Z,7.37
2023-01-15T07:15:23.311Z,7.42
2023-01-15T07:17:26.066Z,7.42
2023-01-15T07:19:29.233Z,7.45
2023-01-15T07:21:33.370Z,7.39
2023-01-15T07:23:36.098Z,7.31
2023-01-15T07:25:39.911Z,7.22
2023-01-15T07:27:42.716Z,7.13
2023-01-15T07:29:45.609Z,7.07
2023-01-15T07:31:48.506Z,7.11
2023-01-15T07:33:51.523Z,7.17
2023-01-15T07:35:54.330Z,7.21
2023-01-15T07:37:58.405Z,7.27
2023-01-15T07:40:01.180Z,7.22
2023-01-15T07:42:21.948Z,7.14
2023-01-15T07:44:43.584Z,7.07
2023-01-15T07:47:03.751Z,7.01
2023-01-15T07:49:27.112Z,6.89
2023-01-15T07:51:30.009Z,6.80
2023-01-15T07:53:34.117Z,6.72
2023-01-15T07:55:37.363Z,6.75
2023-01-15T07:57:41.292Z,6.75
2023-01-15T07:59:44.158Z,6.72
2023-01-15T08:01:47.256Z,6.69
2023-01-15T08:03:50.176Z,6.70
2023-01-15T08:05:53.015Z,6.75
2023-01-15T08:07:55.906Z,6.72
2023-01-15T08:10:00.089Z,6.71
2023-01-15T08:12:21.571Z,6.59
2023-01-15T08:14:41.788Z,6.62
2023-01-15T08:16:44.546Z,6.60
2023-01-15T08:18:47.342Z,6.66
2023-01-15T08:20:50.300Z,6.71
2023-01-15T08:22:53.555Z,6.69
2023-01-15T08:24:56.365Z,6.59
2023-01-15T08:27:00.451Z,6.65
2023-01-15T08:29:03.250Z,6.70
2023-01-15T08:31:06.663Z,6.77
2023-01-15T08:33:09.435Z,6.74
2023-01-15T08:35:13.058Z,6.87
2023-01-15T08:37:15.902Z,6.78
2023-01-15T08:39:19.087Z,6.84
2023-01-15T08:41:21.958Z,6.82
2023-01-15T08:43:26.255Z,6.82
2023-01-15T08:45:29.134Z,6.88
2023-01-15T08:47:32.855Z,7.05
2023-01-15T08:49:35.734Z,7.15
2023-01-15T08:51:38.529Z,7.22
2023-01-15T08:53:42.136Z,7.24
2023-01-15T08:55:44.956Z,7.37
2023-01-15T08:57:47.755Z,7.30
2023-01-15T08:59:51.995Z,7.19
2023-01-15T09:01:55.020Z,7.27
2023-01-15T09:03:58.144Z,7.10
2023-01-15T09:06:01.730Z,6.98
2023-01-15T09:08:05.277Z,6.94
2023-01-15T09:10:09.216Z,6.97
2023-01-15T09:12:12.004Z,7.01
2023-01-15T09:14:59.692Z,6.96
2023-01-15T09:16:40.868Z,7.01
2023-01-15T09:18:43.937Z,6.96
2023-01-15T09:20:46.737Z,6.93
2023-01-15T09:22:50.003Z,6.92
2023-01-15T09:24:52.783Z,6.82
2023-01-15T09:26:55.588Z,6.70
2023-01-15T09:28:59.099Z,6.67
2023-01-15T09:31:02.578Z,6.72
2023-01-15T09:33:06.832Z,6.80
2023-01-15T09:35:10.139Z,6.86
2023-01-15T09:37:12.981Z,6.88
2023-01-15T09:39:15.748Z,6.97
2023-01-15T09:41:36.451Z,7.04
2023-01-15T09:43:51.122Z,6.99
2023-01-15T09:45:57.965Z,7.04
2023-01-15T09:48:18.293Z,7.15
2023-01-15T09:50:36.499Z,7.23
2023-01-15T09:52:59.969Z,7.29
2023-01-15T09:55:11.107Z,7.22
2023-01-15T09:57:16.731Z,7.31
2023-01-15T09:59:29.171Z,7.38
2023-01-15T10:01:34.298Z,7.41
2023-01-15T10:03:44.052Z,7.38
2023-01-15T10:05:53.758Z,7.14
2023-01-15T10:08:02.009Z,7.11
2023-01-15T10:10:08.403Z,7.08
2023-01-15T10:12:36.629Z,6.99
2023-01-15T10:14:46.843Z,7.02
2023-01-15T10:16:51.417Z,6.97
2023-01-15T10:18:58.153Z,6.86
2023-01-15T10:21:27.259Z,6.97
2023-01-15T10:23:36.579Z,7.01
2023-01-15T10:25:48.498Z,6.93
2023-01-15T10:27:52.811Z,6.91
2023-01-15T10:30:01.524Z,6.83
2023-01-15T10:32:17.613Z,6.80
2023-01-15T10:34:52.287Z,6.88
2023-01-15T10:37:02.019Z,6.88
2023-01-15T10:39:16.134Z,6.72
2023-01-15T10:41:32.724Z,6.47
2023-01-15T10:43:47.369Z,6.25
2023-01-15T10:45:54.983Z,6.29
2023-01-15T10:48:02.311Z,6.45
2023-01-15T10:50:17.795Z,6.38
2023-01-15T10:52:26.282Z,6.41
2023-01-15T10:54:36.228Z,6.25
2023-01-15T10:56:44.277Z,6.18
2023-01-15T10:58:53.455Z,6.17
2023-01-15T11:00:59.968Z,6.03
2023-01-15T11:03:07.500Z,5.91
2023-01-15T11:05:17.042Z,5.88
2023-01-15T11:07:20.926Z,5.79
2023-01-15T11:09:31.275Z,5.90
2023-01-15T11:12:03.408Z,5.80
2023-01-15T11:14:24.022Z,5.73
2023-01-15T11:16:45.499Z,5.70
2023-01-15T11:19:06.246Z,5.67
2023-01-15T11:21:15.217Z,5.62
2023-01-15T11:23:21.695Z,5.59
2023-01-15T11:25:30.394Z,5.73
2023-01-15T11:27:34.529Z,5.84
2023-01-15T11:29:38.103Z,5.94
2023-01-15T11:31:42.174Z,5.76
2023-01-15T11:33:46.537Z,5.60
2023-01-15T11:35:52.705Z,5.36
2023-01-15T11:38:15.243Z,5.33
2023-01-15T11:40:19.691Z,5.35
2023-01-15T11:42:48.807Z,5.14
2023-01-15T11:45:10.459Z,5.20
2023-01-15T11:47:32.038Z,5.12
2023-01-15T11:49:52.215Z,4.99
2023-01-15T11:51:58.676Z,5.01
2023-01-15T11:54:05.643Z,5.01
2023-01-15T11:56:13.912Z,4.93
2023-01-15T11:58:16.902Z,4.78
2023-01-15T12:00:23.640Z,4.79
2023-01-15T12:02:35.746Z,4.76
2023-01-15T12:04:47.622Z,4.71
2023-01-15T12:06:51.158Z,4.66
2023-01-15T12:09:01.441Z,4.68
2023-01-15T12:11:26.769Z,4.71
2023-01-15T12:13:35.898Z,4.74
2023-01-15T12:15:45.091Z,4.78
2023-01-15T12:18:12.390Z,4.85
2023-01-15T12:20:23.982Z,4.79
2023-01-15T12:22:44.840Z,4.84
2023-01-15T12:25:07.061Z,4.87
2023-01-15T12:27:26.726Z,4.88
2023-01-15T12:29:39.479Z,4.90
2023-01-15T12:31:47.256Z,4.81
2023-01-15T12:33:54.897Z,4.84
2023-01-15T12:36:03.473Z,4.87
2023-01-15T12:38:15.833Z,5.09
2023-01-15T12:40:23.925Z,5.18
2023-01-15T12:42:48.720Z,5.16
2023-01-15T12:45:08.810Z,5.02
2023-01-15T12:47:17.764Z,5.09
2023-01-15T12:49:33.409Z,5.32
2023-01-15T12:51:46.434Z,5.50
2023-01-15T12:53:54.323Z,5.68
2023-01-15T12:56:01.666Z,5.78
2023-01-15T12:58:18.398Z,5.82
2023-01-15T13:00:24.276Z,5.91
2023-01-15T13:02:36.840Z,5.99
2023-01-15T13:04:47.027Z,6.08
2023-01-15T13:06:54.946Z,6.14
2023-01-15T13:09:04.058Z,6.24
2023-01-15T13:11:07.606Z,6.25
2023-01-15T13:13:18.230Z,6.27
2023-01-15T13:15:28.109Z,6.32
2023-01-15T13:17:40.589Z,6.41
2023-01-15T13:19:53.662Z,6.54
2023-01-15T13:22:01.124Z,6.54
2023-01-15T13:24:24.182Z,6.62
2023-01-15T13:26:48.064Z,6.70
2023-01-15T13:29:07.172Z,6.76
2023-01-15T13:31:30.154Z,6.90
2023-01-15T13:33:38.908Z,6.84
2023-01-15T13:35:48.123Z,6.87
2023-01-15T13:37:53.757Z,6.88
2023-01-15T13:40:01.315Z,6.88
2023-01-15T13:42:23.204Z,6.89
2023-01-15T13:44:34.553Z,7.01
2023-01-15T13:46:37.479Z,6.95
2023-01-15T13:48:45.597Z,7.03
2023-01-15T13:50:54.113Z,7.04
2023-01-15T13:53:03.698Z,7.03
2023-01-15T13:55:12.916Z,7.07
2023-01-15T13:57:25.114Z,7.07
2023-01-15T13:59:43.225Z,7.21
2023-01-15T14:01:46.178Z,7.11
2023-01-15T14:03:59.149Z,7.14
2023-01-15T14:06:04.337Z,7.12
2023-01-15T14:08:17.468Z,7.04
2023-01-15T14:10:33.470Z,7.02
2023-01-15T14:12:50.203Z,6.99
2023-01-15T14:15:17.423Z,7.18
2023-01-15T14:17:57.696Z,7.21
2023-01-15T14:20:28.005Z,7.29
2023-01-15T14:22:48.782Z,7.41
2023-01-15T14:25:04.235Z,7.36
2023-01-15T14:27:09.509Z,7.37
2023-01-15T14:29:33.602Z,7.21
2023-01-15T14:31:57.943Z,7.22
2023-01-15T14:34:20.579Z,7.23
2023-01-15T14:36:27.809Z,7.27
2023-01-15T14:38:33.305Z,7.34
2023-01-15T14:40:40.625Z,7.36
2023-01-15T14:43:06.851Z,7.29
2023-01-15T14:45:21.907Z,7.13
2023-01-15T14:47:33.226Z,7.23
2023-01-15T14:49:49.551Z,7.19
2023-01-15T14:51:52.549Z,7.09
2023-01-15T14:53:58.638Z,7.18
2023-01-15T14:56:08.494Z,7.23
2023-01-15T14:58:17.340Z,7.15
2023-01-15T15:00:21.958Z,7.04
2023-01-15T15:02:33.491Z,6.97
2023-01-15T15:04:40.379Z,6.95
2023-01-15T15:06:49.141Z,7.01
2023-01-15T15:08:55.047Z,6.97
2023-01-15T15:11:00.219Z,7.06
2023-01-15T15:13:09.220Z,7.01
2023-01-15T15:15:17.884Z,6.87
2023-01-15T15:17:30.697Z,6.88
2023-01-15T15:19:39.738Z,7.02
2023-01-15T15:21:46.227Z,7.10
2023-01-15T15:23:57.006Z,7.20
2023-01-15T15:26:01.394Z,6.96
2023-01-15T15:28:06.516Z,6.89
2023-01-15T15:30:15.369Z,6.78
2023-01-15T15:32:20.824Z,6.69
2023-01-15T15:34:28.635Z,6.67
2023-01-15T15:36:39.050Z,6.52
2023-01-15T15:38:53.652Z,6.49
2023-01-15T15:40:59.925Z,6.45
2023-01-15T15:43:28.791Z,6.49
2023-01-15T15:45:50.763Z,6.46
2023-01-15T15:48:15.258Z,6.44
2023-01-15T15:50:23.109Z,6.50
2023-01-15T15:52:27.981Z,6.51
2023-01-15T15:54:32.658Z,6.42
2023-01-15T15:56:36.119Z,6.44
2023-01-15T15:58:39.973Z,6.54
2023-01-15T16:00:46.099Z,6.57
2023-01-15T16:02:49.222Z,6.62
2023-01-15T16:04:53.278Z,6.71
2023-01-15T16:06:56.055Z,6.74
2023-01-15T16:09:04.468Z,6.82
2023-01-15T16:11:12.349Z,6.72
2023-01-15T16:13:24.890Z,6.57
2023-01-15T16:15:30.754Z,6.64
2023-01-15T16:17:34.553Z,6.61
2023-01-15T16:19:37.728Z,6.66
2023-01-15T16:21:42.495Z,6.65
2023-01-15T16:23:56.206Z,6.51
2023-01-15T16:26:09.020Z,6.53
2023-01-15T16:28:24.927Z,6.49
2023-01-15T16:30:29.188Z,6.58
2023-01-15T16:32:35.667Z,6.61
2023-01-15T16:34:38.606Z,6.49
2023-01-15T16:36:45.365Z,6.57
2023-01-15T16:38:51.584Z,6.55
2023-01-15T16:40:54.884Z,6.60
2023-01-15T16:43:06.770Z,6.67
2023-01-15T16:45:22.587Z,6.52
2023-01-15T16:47:27.239Z,6.60
2023-01-15T16:49:31.890Z,6.50
2023-01-15T16:51:36.298Z,6.48
2023-01-15T16:53:41.422Z,6.53
2023-01-15T16:55:45.829Z,6.55
2023-01-15T16:57:48.630Z,6.59
2023-01-15T16:59:58.698Z,6.46
2023-01-15T17:02:07.867Z,6.53
2023-01-15T17:04:20.696Z,6.40
2023-01-15T17:06:27.118Z,6.42
2023-01-15T17:08:36.478Z,6.50
2023-01-15T17:10:39.382Z,6.44
2023-01-15T17:12:44.306Z,6.49
2023-01-15T17:14:46.985Z,6.58
2023-01-15T17:17:18.572Z,6.49
2023-01-15T17:19:24.366Z,6.45
2023-01-15T17:21:29.296Z,6.51
2023-01-15T17:23:35.567Z,6.47
2023-01-15T17:25:38.416Z,6.44
2023-01-15T17:27:41.238Z,6.51
2023-01-15T17:29:44.246Z,6.51
2023-01-15T17:31:47.102Z,6.51
2023-01-15T17:33:51.735Z,6.52
2023-01-15T17:35:56.592Z,6.51
2023-01-15T17:37:59.445Z,6.58
2023-01-15T17:40:02.318Z,6.46
2023-01-15T17:42:13.959Z,6.52
2023-01-15T17:44:16.705Z,6.56
2023-01-15T17:46:19.636Z,6.47
2023-01-15T17:48:22.434Z,6.51
2023-01-15T17:50:26.738Z,6.45
2023-01-15T17:52:29.510Z,6.56
2023-01-15T17:54:49.810Z,6.51
2023-01-15T17:57:24.857Z,6.54
2023-01-15T17:59:45.124Z,6.58
2023-01-15T18:02:06.419Z,6.46
2023-01-15T18:04:35.848Z,6.49
2023-01-15T18:06:43.984Z,6.40
2023-01-15T18:08:49.927Z,6.53
2023-01-15T18:10:52.784Z,6.54
2023-01-15T18:12:55.646Z,6.51
2023-01-15T18:14:58.501Z,6.42
2023-01-15T18:17:01.830Z,6.42
2023-01-15T18:19:04.706Z,6.45
2023-01-15T18:21:07.595Z,6.47
2023-01-15T18:23:11.906Z,6.37
2023-01-15T18:25:14.704Z,6.32
2023-01-15T18:27:17.499Z,6.35
2023-01-15T18:29:20.754Z,6.34
2023-01-15T18:31:23.599Z,6.39
2023-01-15T18:33:26.389Z,6.34
2023-01-15T18:35:29.173Z,6.33
2023-01-15T18:37:33.126Z,6.23
2023-01-15T18:39:37.852Z,6.19
2023-01-15T18:41:58.795Z,6.23
2023-01-15T18:44:18.973Z,6.19
2023-01-15T18:46:39.426Z,6.11
2023-01-15T18:48:42.330Z,6.22
2023-01-15T18:50:45.137Z,6.23
2023-01-15T18:52:54.054Z,6.27
2023-01-15T18:54:58.368Z,6.31
2023-01-15T18:57:01.188Z,6.28
2023-01-15T18:59:03.999Z,6.22
2023-01-15T19:01:08.988Z,6.15
2023-01-15T19:03:11.938Z,6.36
2023-01-15T19:05:16.971Z,6.32
2023-01-15T19:07:19.840Z,6.36
2023-01-15T19:09:24.148Z,6.16
2023-01-15T19:11:28.722Z,6.19
2023-01-15T19:13:31.546Z,6.33
2023-01-15T19:15:51.906Z,6.26
2023-01-15T19:18:12.274Z,6.11
2023-01-15T19:20:17.316Z,6.09
2023-01-15T19:22:37.713Z,6.23
2023-01-15T19:24:40.536Z,6.24
2023-01-15T19:26:44.668Z,6.19
2023-01-15T19:28:47.464Z,6.11
2023-01-15T19:31:12.405Z,6.16
2023-01-15T19:33:15.164Z,6.10
2023-01-15T19:35:18.356Z,6.14
2023-01-15T19:37:22.066Z,6.14
2023-01-15T19:39:24.894Z,6.09
2023-01-15T19:41:45.394Z,6.00
2023-01-15T19:44:06.967Z,5.98
2023-01-15T19:46:28.379Z,5.93
2023-01-15T19:48:48.609Z,5.88
2023-01-15T19:50:54.071Z,5.86
2023-01-15T19:52:56.942Z,5.88
2023-01-15T19:55:00.248Z,5.89
2023-01-15T19:57:03.129Z,5.97
2023-01-15T19:59:07.806Z,5.89
2023-01-15T20:01:14.671Z,5.95
2023-01-15T20:03:17.806Z,6.02
2023-01-15T20:05:21.695Z,6.01
2023-01-15T20:07:24.477Z,6.11
2023-01-15T20:09:27.233Z,6.07
2023-01-15T20:11:50.889Z,6.10
2023-01-15T20:13:53.678Z,6.09
2023-01-15T20:16:01.218Z,6.11
2023-01-15T20:18:04.141Z,6.09
2023-01-15T20:20:08.278Z,6.11
2023-01-15T20:22:11.149Z,6.05
2023-01-15T20:24:13.999Z,6.11
2023-01-15T20:26:18.156Z,6.15
2023-01-15T20:28:21.495Z,6.15
2023-01-15T20:30:26.340Z,6.24
2023-01-15T20:32:30.433Z,6.17
2023-01-15T20:34:36.282Z,6.19
2023-01-15T20:36:39.163Z,6.24
2023-01-15T20:38:41.921Z,6.18
2023-01-15T20:40:46.285Z,6.18
2023-01-15T20:43:06.996Z,6.06
2023-01-15T20:45:10.929Z,6.05
2023-01-15T20:47:28.103Z,6.06
2023-01-15T20:49:32.590Z,6.07
2023-01-15T20:51:35.373Z,6.13
2023-01-15T20:53:39.326Z,6.13
2023-01-15T20:55:55.910Z,6.05
2023-01-15T20:58:00.457Z,6.01
2023-01-15T21:00:07.842Z,6.00
2023-01-15T21:02:12.497Z,6.11
2023-01-15T21:04:15.426Z,6.15
2023-01-15T21:06:19.611Z,6.11
2023-01-15T21:08:22.454Z,6.13
2023-01-15T21:10:26.569Z,6.17
2023-01-15T21:12:29.353Z,6.13
2023-01-15T21:14:32.160Z,6.08
2023-01-15T21:16:35.085Z,6.15
2023-01-15T21:18:38.932Z,6.13
2023-01-15T21:20:41.712Z,6.19
2023-01-15T21:22:47.343Z,6.23
2023-01-15T21:24:51.610Z,6.21
2023-01-15T21:26:54.439Z,6.32
2023-01-15T21:28:57.606Z,6.28
2023-01-15T21:31:03.815Z,6.28
2023-01-15T21:33:08.815Z,6.22
2023-01-15T21:35:11.779Z,6.25
2023-01-15T21:37:15.873Z,6.32
2023-01-15T21:39:20.741Z,6.27
2023-01-15T21:41:45.766Z,6.28
2023-01-15T21:44:06.032Z,6.22
2023-01-15T21:46:08.902Z,6.17
2023-01-15T21:48:11.637Z,6.24
2023-01-15T21:50:14.371Z,6.23
2023-01-15T21:52:19.302Z,6.16
2023-01-15T21:54:24.529Z,6.16
2023-01-15T21:56:27.367Z,6.14
2023-01-15T21:58:30.235Z,6.31
2023-01-15T22:00:33.128Z,6.29
2023-01-15T22:02:36.208Z,6.22
2023-01-15T22:04:39.126Z,6.31
2023-01-15T22:06:41.904Z,6.17
2023-01-15T22:08:44.763Z,6.17
2023-01-15T22:10:49.804Z,6.21
2023-01-15T22:12:52.608Z,6.17
2023-01-15T22:14:57.366Z,6.19
2023-01-15T22:17:01.768Z,6.22
2023-01-15T22:19:04.604Z,6.21
2023-01-15T22:21:08.512Z,6.23
2023-01-15T22:23:11.390Z,6.26
2023-01-15T22:25:15.544Z,6.27
2023-01-15T22:27:20.661Z,6.31
2023-01-15T22:29:24.840Z,6.30
2023-01-15T22:31:28.387Z,6.23
2023-01-15T22:33:31.749Z,6.19
2023-01-15T22:35:34.640Z,6.19
2023-01-15T22:37:37.436Z,6.17
2023-01-15T22:39:40.247Z,6.15
2023-01-15T22:42:00.708Z,6.23
2023-01-15T22:44:05.466Z,6.13
2023-01-15T22:46:12.566Z,6.08
2023-01-15T22:48:15.577Z,6.08
2023-01-15T22:50:18.629Z,6.20
2023-01-15T22:52:25.038Z,6.23
2023-01-15T22:54:27.825Z,6.17
2023-01-15T22:56:30.569Z,6.00
2023-01-15T22:58:33.287Z,6.03
2023-01-15T23:00:37.589Z,6.12
2023-01-15T23:02:55.542Z,6.06
2023-01-15T23:04:58.321Z,6.05
2023-01-15T23:07:01.285Z,5.98
2023-01-15T23:09:04.912Z,5.99
2023-01-15T23:11:11.312Z,6.13
2023-01-15T23:13:14.493Z,6.11
2023-01-15T23:15:17.331Z,6.09
2023-01-15T23:17:21.490Z,6.16
2023-01-15T23:19:24.928Z,6.12
2023-01-15T23:21:27.980Z,6.12
2023-01-15T23:23:30.862Z,6.16
2023-01-15T23:25:33.662Z,6.16
2023-01-15T23:27:36.542Z,6.15
2023-01-15T23:29:39.289Z,6.09
2023-01-15T23:31:42.183Z,6.20
2023-01-15T23:33:46.889Z,6.17
2023-01-15T23:35:49.711Z,6.12
2023-01-15T23:37:52.518Z,6.14
2023-01-15T23:39:55.363Z,6.18
2023-01-15T23:42:15.641Z,6.21
2023-01-15T23:44:38.531Z,6.08
2023-01-15T23:46:41.361Z,6.08
2023-01-15T23:48:44.667Z,6.03
2023-01-15T23:50:48.829Z,6.06
2023-01-15T23:52:51.730Z,6.06
2023-01-15T23:54:54.553Z,6.10
2023-01-15T23:56:58.286Z,6.16
2023-01-15T23:59:01.341Z,6.20
